sensor_id;sensor_type;location;lat;lon;timestamp;P1;durP1;ratioP1;P2;durP2;ratioP2
15557;SDS011;7880;50.110;9.372;2022-07-31T00:04:34;6.0076923076923086;;;3.869230769230768;;
15557;SDS011;7880;50.110;9.372;2022-07-31T00:09:44;3.969230769230769;;;3.5;;
15557;SDS011;7880;50.110;9.372;2022-07-31T00:14:42;6.938461538461538;;;4.469230769230769;;
15557;SDS011;7880;50.110;9.372;2022-07-31T00:19:46;6.269230769230769;;;4.530769230769231;;
15557;SDS011;7880;50.110;9.372;2022-07-31T00:24:48;4.269230769230769;;;3.869230769230768;;
15557;SDS011;7880;50.110;9.372;2022-07-31T00:29:52;4.269230769230769;;;3.7000000000000006;;
15557;SDS011;7880;50.110;9.372;2022-07-31T00:34:55;4.269230769230769;;;3.969230769230769;;
15557;SDS011;7880;50.110;9.372;2022-07-31T00:39:58;4.1000000000000005;;;3.7000000000000006;;
15557;SDS011;7880;50.110;9.372;2022-07-31T00:45:11;4.938461538461538;;;4.0;;
15557;SDS011;7880;50.110;9.372;2022-07-31T00:50:13;4.799999999999999;;;3.66923076923077;;
15557;SDS011;7880;50.110;9.372;2022-07-31T00:55:09;4.2615384615384615;;;3.7999999999999994;;
15557;SDS011;7880;50.110;9.372;2022-07-31T01:00:22;4.430769230769231;;;4.0307692307692315;;
15557;SDS011;7880;50.110;9.372;2022-07-31T01:05:21;4.815384615384616;;;3.7999999999999994;;
15557;SDS011;7880;50.110;9.372;2022-07-31T01:10:21;5.93076923076923;;;4.23076923076923;;
15557;SDS011;7880;50.110;9.372;2022-07-31T01:15:23;4.130769230769232;;;3.7307692307692295;;
15557;SDS011;7880;50.110;9.372;2022-07-31T01:20:26;4.0307692307692315;;;3.7000000000000006;;
15557;SDS011;7880;50.110;9.372;2022-07-31T01:25:37;5.107692307692308;;;3.838461538461539;;
15557;SDS011;7880;50.110;9.372;2022-07-31T01:30:35;4.369230769230769;;;3.969230769230769;;
15557;SDS011;7880;50.110;9.372;2022-07-31T01:35:39;5.838461538461538;;;4.5;;
15557;SDS011;7880;50.110;9.372;2022-07-31T01:40:42;4.8999999999999995;;;4.3999999999999995;;
15557;SDS011;7880;50.110;9.372;2022-07-31T01:45:45;3.969230769230769;;;3.56923076923077;;
15557;SDS011;7880;50.110;9.372;2022-07-31T01:50:48;4.33076923076923;;;4.0;;
15557;SDS011;7880;50.110;9.372;2022-07-31T01:55:58;7.438461538461538;;;4.299999999999999;;
15557;SDS011;7880;50.110;9.372;2022-07-31T02:00:54;5.061538461538461;;;4.630769230769231;;
15557;SDS011;7880;50.110;9.372;2022-07-31T02:06:00;7.13846153846154;;;4.96923076923077;;
15557;SDS011;7880;50.110;9.372;2022-07-31T02:11:01;6.423076923076923;;;4.561538461538462;;
15557;SDS011;7880;50.110;9.372;2022-07-31T02:16:09;6.269230769230769;;;4.200000000000001;;
15557;SDS011;7880;50.110;9.372;2022-07-31T02:21:20;4.453846153846154;;;4.0538461538461545;;
15557;SDS011;7880;50.110;9.372;2022-07-31T02:26:13;5.138461538461538;;;4.1000000000000005;;
15557;SDS011;7880;50.110;9.372;2022-07-31T02:31:16;5.5076923076923086;;;4.16923076923077;;
15557;SDS011;7880;50.110;9.372;2022-07-31T02:36:20;7.738461538461536;;;4.200000000000001;;
15557;SDS011;7880;50.110;9.372;2022-07-31T02:41:23;4.730769230769231;;;4.23076923076923;;
15557;SDS011;7880;50.110;9.372;2022-07-31T02:46:28;6.0;;;4.530769230769231;;
15557;SDS011;7880;50.110;9.372;2022-07-31T02:51:31;11.738461538461536;;;4.3999999999999995;;
15557;SDS011;7880;50.110;9.372;2022-07-31T02:56:35;9.907692307692306;;;4.799999999999999;;
15557;SDS011;7880;50.110;9.372;2022-07-31T03:01:40;4.8999999999999995;;;4.5;;
15557;SDS011;7880;50.110;9.372;2022-07-31T03:06:43;5.1692307692307695;;;4.569230769230769;;
15557;SDS011;7880;50.110;9.372;2022-07-31T03:11:46;5.06923076923077;;;4.569230769230769;;
15557;SDS011;7880;50.110;9.372;2022-07-31T03:16:50;6.961538461538462;;;4.853846153846153;;
15557;SDS011;7880;50.110;9.372;2022-07-31T03:21:55;4.2615384615384615;;;3.8615384615384616;;
15557;SDS011;7880;50.110;9.372;2022-07-31T03:26:59;5.607692307692309;;;4.369230769230769;;
15557;SDS011;7880;50.110;9.372;2022-07-31T03:30:32;4.8999999999999995;;;4.5;;
15557;SDS011;7880;50.110;9.372;2022-07-31T03:35:36;4.469230769230769;;;4.0;;
15557;SDS011;7880;50.110;9.372;2022-07-31T03:40:39;4.799999999999999;;;4.299999999999999;;
15557;SDS011;7880;50.110;9.372;2022-07-31T03:45:42;4.700000000000001;;;4.299999999999999;;
15557;SDS011;7880;50.110;9.372;2022-07-31T03:50:50;5.200000000000001;;;4.700000000000001;;
15557;SDS011;7880;50.110;9.372;2022-07-31T03:55:51;5.1692307692307695;;;4.0307692307692315;;
15557;SDS011;7880;50.110;9.372;2022-07-31T04:00:55;5.061538461538462;;;4.561538461538462;;
15557;SDS011;7880;50.110;9.372;2022-07-31T04:05:59;4.93076923076923;;;4.430769230769231;;
15557;SDS011;7880;50.110;9.372;2022-07-31T04:11:03;6.630769230769232;;;4.961538461538461;;
15557;SDS011;7880;50.110;9.372;2022-07-31T04:16:06;5.769230769230769;;;5.0;;
15557;SDS011;7880;50.110;9.372;2022-07-31T04:21:09;4.93076923076923;;;3.8307692307692305;;
15557;SDS011;7880;50.110;9.372;2022-07-31T04:26:14;4.130769230769232;;;3.8307692307692305;;
15557;SDS011;7880;50.110;9.372;2022-07-31T04:31:16;4.799999999999999;;;4.3999999999999995;;
15557;SDS011;7880;50.110;9.372;2022-07-31T04:36:28;6.438461538461538;;;4.8999999999999995;;
15557;SDS011;7880;50.110;9.372;2022-07-31T04:41:31;4.730769230769231;;;4.33076923076923;;
15557;SDS011;7880;50.110;9.372;2022-07-31T04:46:27;4.700000000000001;;;4.299999999999999;;
15557;SDS011;7880;50.110;9.372;2022-07-31T04:51:30;4.630769230769232;;;4.200000000000001;;
15557;SDS011;7880;50.110;9.372;2022-07-31T04:56:35;4.6000000000000005;;;4.200000000000001;;
15557;SDS011;7880;50.110;9.372;2022-07-31T05:01:37;5.200000000000001;;;4.700000000000001;;
15557;SDS011;7880;50.110;9.372;2022-07-31T05:06:41;4.5;;;4.1000000000000005;;
15557;SDS011;7880;50.110;9.372;2022-07-31T05:11:43;4.799999999999999;;;4.3999999999999995;;
15557;SDS011;7880;50.110;9.372;2022-07-31T05:16:47;5.6;;;5.1000000000000005;;
15557;SDS011;7880;50.110;9.372;2022-07-31T05:21:51;4.861538461538462;;;4.430769230769231;;
15557;SDS011;7880;50.110;9.372;2022-07-31T05:26:56;5.4;;;4.8999999999999995;;
15557;SDS011;7880;50.110;9.372;2022-07-31T05:32:00;4.8999999999999995;;;4.5;;
15557;SDS011;7880;50.110;9.372;2022-07-31T05:37:03;6.869230769230768;;;4.830769230769231;;
15557;SDS011;7880;50.110;9.372;2022-07-31T05:42:12;7.8076923076923075;;;5.1692307692307695;;
15557;SDS011;7880;50.110;9.372;2022-07-31T05:47:10;6.030769230769229;;;5.43076923076923;;
15557;SDS011;7880;50.110;9.372;2022-07-31T05:52:18;5.9;;;4.946153846153845;;
15557;SDS011;7880;50.110;9.372;2022-07-31T05:57:16;5.0;;;4.5;;
15557;SDS011;7880;50.110;9.372;2022-07-31T06:02:20;6.538461538461541;;;4.6000000000000005;;
15557;SDS011;7880;50.110;9.372;2022-07-31T06:07:31;5.192307692307693;;;4.692307692307694;;
15557;SDS011;7880;50.110;9.372;2022-07-31T06:12:29;6.06923076923077;;;4.630769230769232;;
15557;SDS011;7880;50.110;9.372;2022-07-31T06:17:33;4.799999999999999;;;4.3999999999999995;;
15557;SDS011;7880;50.110;9.372;2022-07-31T06:22:38;4.630769230769232;;;4.23076923076923;;
15557;SDS011;7880;50.110;9.372;2022-07-31T06:27:41;6.338461538461538;;;4.5;;
15557;SDS011;7880;50.110;9.372;2022-07-31T06:32:43;4.8999999999999995;;;4.3999999999999995;;
15557;SDS011;7880;50.110;9.372;2022-07-31T06:37:46;5.153846153846154;;;4.299999999999999;;
15557;SDS011;7880;50.110;9.372;2022-07-31T06:42:50;8.007692307692306;;;4.1000000000000005;;
15557;SDS011;7880;50.110;9.372;2022-07-31T06:47:59;4.092307692307691;;;3.600000000000001;;
15557;SDS011;7880;50.110;9.372;2022-07-31T06:53:01;7.676923076923078;;;3.838461538461539;;
15557;SDS011;7880;50.110;9.372;2022-07-31T06:58:03;2.7;;;2.5;;
15557;SDS011;7880;50.110;9.372;2022-07-31T07:03:06;3.399999999999999;;;3.0;;
15557;SDS011;7880;50.110;9.372;2022-07-31T07:08:09;3.5;;;3.2;;
15557;SDS011;7880;50.110;9.372;2022-07-31T07:13:14;3.561538461538462;;;3.2307692307692295;;
15557;SDS011;7880;50.110;9.372;2022-07-31T07:18:21;5.192307692307693;;;3.2307692307692295;;
15557;SDS011;7880;50.110;9.372;2022-07-31T07:23:22;4.538461538461538;;;3.2999999999999994;;
15557;SDS011;7880;50.110;9.372;2022-07-31T07:28:29;2.8;;;2.3999999999999995;;
15557;SDS011;7880;50.110;9.372;2022-07-31T07:33:27;3.738461538461539;;;3.2;;
15557;SDS011;7880;50.110;9.372;2022-07-31T07:38:31;4.5153846153846136;;;3.530769230769231;;
15557;SDS011;7880;50.110;9.372;2022-07-31T07:43:35;2.9615384615384617;;;2.7;;
15557;SDS011;7880;50.110;9.372;2022-07-31T07:48:43;3.600000000000001;;;3.0;;
15557;SDS011;7880;50.110;9.372;2022-07-31T07:53:41;3.3307692307692305;;;3.100000000000001;;
15557;SDS011;7880;50.110;9.372;2022-07-31T07:58:45;3.969230769230769;;;2.969230769230769;;
15557;SDS011;7880;50.110;9.372;2022-07-31T08:03:49;3.0923076923076915;;;2.530769230769231;;
15557;SDS011;7880;50.110;9.372;2022-07-31T08:08:52;3.969230769230769;;;2.1999999999999997;;
15557;SDS011;7880;50.110;9.372;2022-07-31T08:13:56;3.738461538461539;;;2.269230769230769;;
15557;SDS011;7880;50.110;9.372;2022-07-31T08:18:59;3.438461538461538;;;2.369230769230769;;
15557;SDS011;7880;50.110;9.372;2022-07-31T08:24:01;2.8692307692307684;;;2.0;;
15557;SDS011;7880;50.110;9.372;2022-07-31T08:29:06;3.5;;;2.1000000000000005;;
15557;SDS011;7880;50.110;9.372;2022-07-31T08:32:44;3.5615384615384613;;;2.3000000000000003;;
15557;SDS011;7880;50.110;9.372;2022-07-31T08:37:47;6.13846153846154;;;2.1000000000000005;;
15557;SDS011;7880;50.110;9.372;2022-07-31T08:42:50;4.630769230769232;;;2.269230769230769;;
15557;SDS011;7880;50.110;9.372;2022-07-31T08:47:58;2.5;;;1.6999999999999995;;
15557;SDS011;7880;50.110;9.372;2022-07-31T08:52:58;2.969230769230769;;;1.8999999999999997;;
15557;SDS011;7880;50.110;9.372;2022-07-31T08:58:03;2.369230769230769;;;1.8000000000000005;;
15557;SDS011;7880;50.110;9.372;2022-07-31T09:03:06;3.7692307692307705;;;1.969230769230769;;
15557;SDS011;7880;50.110;9.372;2022-07-31T09:08:09;2.8692307692307684;;;1.6999999999999995;;
15557;SDS011;7880;50.110;9.372;2022-07-31T09:13:19;2.0;;;1.8000000000000005;;
15557;SDS011;7880;50.110;9.372;2022-07-31T09:18:18;2.969230769230769;;;1.969230769230769;;
15557;SDS011;7880;50.110;9.372;2022-07-31T09:23:27;3.838461538461539;;;2.1000000000000005;;
15557;SDS011;7880;50.110;9.372;2022-07-31T09:28:33;2.8692307692307684;;;1.8000000000000005;;
15557;SDS011;7880;50.110;9.372;2022-07-31T09:33:31;1.6;;;1.5;;
15557;SDS011;7880;50.110;9.372;2022-07-31T09:38:34;2.7;;;1.8000000000000005;;
15557;SDS011;7880;50.110;9.372;2022-07-31T09:43:41;2.669230769230769;;;1.5;;
15557;SDS011;7880;50.110;9.372;2022-07-31T09:48:49;3.0307692307692307;;;1.8999999999999997;;
15557;SDS011;7880;50.110;9.372;2022-07-31T09:53:46;3.399999999999999;;;1.8999999999999997;;
15557;SDS011;7880;50.110;9.372;2022-07-31T09:58:51;2.1000000000000005;;;1.8999999999999997;;
15557;SDS011;7880;50.110;9.372;2022-07-31T10:03:55;4.7384615384615385;;;1.546153846153846;;
15557;SDS011;7880;50.110;9.372;2022-07-31T10:08:57;3.738461538461539;;;2.1000000000000005;;
15557;SDS011;7880;50.110;9.372;2022-07-31T10:14:01;4.869230769230769;;;1.6;;
15557;SDS011;7880;50.110;9.372;2022-07-31T10:19:10;1.969230769230769;;;1.6999999999999995;;
15557;SDS011;7880;50.110;9.372;2022-07-31T10:24:06;3.56923076923077;;;2.0;;
15557;SDS011;7880;50.110;9.372;2022-07-31T10:29:09;2.899999999999999;;;1.6;;
15557;SDS011;7880;50.110;9.372;2022-07-31T10:34:19;4.2384615384615385;;;1.6999999999999995;;
15557;SDS011;7880;50.110;9.372;2022-07-31T10:39:19;2.630769230769231;;;1.6307692307692305;;
15557;SDS011;7880;50.110;9.372;2022-07-31T10:44:26;2.5384615384615383;;;1.469230769230769;;
15557;SDS011;7880;50.110;9.372;2022-07-31T10:49:44;5.107692307692308;;;1.6;;
15557;SDS011;7880;50.110;9.372;2022-07-31T10:54:38;1.7538461538461538;;;1.530769230769231;;
15557;SDS011;7880;50.110;9.372;2022-07-31T10:59:31;6.507692307692309;;;1.3000000000000003;;
15557;SDS011;7880;50.110;9.372;2022-07-31T11:04:36;1.8000000000000005;;;1.4;;
15557;SDS011;7880;50.110;9.372;2022-07-31T11:09:38;1.6;;;1.3000000000000003;;
15557;SDS011;7880;50.110;9.372;2022-07-31T11:14:42;2.1000000000000005;;;1.4307692307692308;;
15557;SDS011;7880;50.110;9.372;2022-07-31T11:19:46;2.030769230769231;;;1.7692307692307692;;
15557;SDS011;7880;50.110;9.372;2022-07-31T11:24:57;1.6;;;1.5;;
15557;SDS011;7880;50.110;9.372;2022-07-31T11:30:01;1.5692307692307692;;;1.3000000000000003;;
15557;SDS011;7880;50.110;9.372;2022-07-31T11:34:59;1.530769230769231;;;1.330769230769231;;
15557;SDS011;7880;50.110;9.372;2022-07-31T11:40:03;2.5384615384615383;;;1.5692307692307692;;
15557;SDS011;7880;50.110;9.372;2022-07-31T11:45:06;1.6;;;1.5;;
15557;SDS011;7880;50.110;9.372;2022-07-31T11:50:14;1.8384615384615384;;;1.5;;
15557;SDS011;7880;50.110;9.372;2022-07-31T11:55:21;3.5;;;2.0;;
15557;SDS011;7880;50.110;9.372;2022-07-31T12:00:18;1.723076923076923;;;1.4;;
15557;SDS011;7880;50.110;9.372;2022-07-31T12:05:28;2.8307692307692305;;;1.8999999999999997;;
15557;SDS011;7880;50.110;9.372;2022-07-31T12:10:25;2.161538461538462;;;1.6;;
15557;SDS011;7880;50.110;9.372;2022-07-31T12:15:28;2.669230769230769;;;1.8999999999999997;;
15557;SDS011;7880;50.110;9.372;2022-07-31T12:20:33;1.8692307692307695;;;1.4;;
15557;SDS011;7880;50.110;9.372;2022-07-31T12:25:38;3.0;;;1.4307692307692308;;
15557;SDS011;7880;50.110;9.372;2022-07-31T12:30:41;2.169230769230769;;;1.4307692307692308;;
15557;SDS011;7880;50.110;9.372;2022-07-31T12:35:47;2.5384615384615383;;;1.6;;
15557;SDS011;7880;50.110;9.372;2022-07-31T12:40:49;1.6;;;1.330769230769231;;
15557;SDS011;7880;50.110;9.372;2022-07-31T12:45:53;2.9615384615384617;;;1.8999999999999997;;
15557;SDS011;7880;50.110;9.372;2022-07-31T12:50:57;2.469230769230769;;;1.4;;
15557;SDS011;7880;50.110;9.372;2022-07-31T12:56:16;6.60769230769231;;;1.6307692307692305;;
15557;SDS011;7880;50.110;9.372;2022-07-31T13:01:05;2.0692307692307694;;;1.5;;
15557;SDS011;7880;50.110;9.372;2022-07-31T13:06:08;2.0692307692307685;;;1.5;;
15557;SDS011;7880;50.110;9.372;2022-07-31T13:11:13;2.0;;;1.4;;
15557;SDS011;7880;50.110;9.372;2022-07-31T13:16:16;3.523076923076924;;;1.3615384615384611;;
15557;SDS011;7880;50.110;9.372;2022-07-31T13:21:20;3.938461538461538;;;1.4;;
15557;SDS011;7880;50.110;9.372;2022-07-31T13:26:26;1.5;;;1.2307692307692308;;
15557;SDS011;7880;50.110;9.372;2022-07-31T13:31:28;7.676923076923078;;;1.8999999999999997;;
15557;SDS011;7880;50.110;9.372;2022-07-31T13:34:57;2.338461538461538;;;1.6999999999999995;;
15557;SDS011;7880;50.110;9.372;2022-07-31T13:40:00;4.907692307692309;;;1.469230769230769;;
15557;SDS011;7880;50.110;9.372;2022-07-31T13:45:05;2.569230769230769;;;1.3000000000000003;;
15557;SDS011;7880;50.110;9.372;2022-07-31T13:50:08;4.461538461538462;;;1.7307692307692308;;
15557;SDS011;7880;50.110;9.372;2022-07-31T13:55:19;2.6384615384615384;;;1.5;;
15557;SDS011;7880;50.110;9.372;2022-07-31T14:00:18;2.230769230769231;;;1.5;;
15557;SDS011;7880;50.110;9.372;2022-07-31T14:05:20;2.0692307692307694;;;1.5;;
15557;SDS011;7880;50.110;9.372;2022-07-31T14:10:24;3.469230769230769;;;1.530769230769231;;
15557;SDS011;7880;50.110;9.372;2022-07-31T14:15:27;4.438461538461538;;;2.1999999999999997;;
15557;SDS011;7880;50.110;9.372;2022-07-31T14:20:32;2.6384615384615384;;;1.6999999999999995;;
15557;SDS011;7880;50.110;9.372;2022-07-31T14:25:34;3.56923076923077;;;1.6999999999999995;;
15557;SDS011;7880;50.110;9.372;2022-07-31T14:30:45;2.969230769230769;;;1.969230769230769;;
15557;SDS011;7880;50.110;9.372;2022-07-31T14:35:45;5.438461538461538;;;1.6999999999999995;;
15557;SDS011;7880;50.110;9.372;2022-07-31T14:40:53;3.7692307692307705;;;1.7692307692307692;;
15557;SDS011;7880;50.110;9.372;2022-07-31T14:45:55;1.6307692307692305;;;1.530769230769231;;
15557;SDS011;7880;50.110;9.372;2022-07-31T14:50:56;1.5538461538461539;;;1.3000000000000003;;
15557;SDS011;7880;50.110;9.372;2022-07-31T14:56:02;2.630769230769231;;;1.6307692307692305;;
15557;SDS011;7880;50.110;9.372;2022-07-31T15:01:04;2.0;;;1.8000000000000005;;
15557;SDS011;7880;50.110;9.372;2022-07-31T15:06:14;1.6692307692307695;;;1.5692307692307692;;
15557;SDS011;7880;50.110;9.372;2022-07-31T15:11:13;2.169230769230769;;;1.8000000000000005;;
15557;SDS011;7880;50.110;9.372;2022-07-31T15:16:14;2.269230769230769;;;1.8999999999999997;;
15557;SDS011;7880;50.110;9.372;2022-07-31T15:21:17;2.569230769230769;;;1.6307692307692305;;
15557;SDS011;7880;50.110;9.372;2022-07-31T15:26:21;3.2692307692307705;;;1.8000000000000005;;
15557;SDS011;7880;50.110;9.372;2022-07-31T15:31:27;2.6000000000000005;;;1.4;;
15557;SDS011;7880;50.110;9.372;2022-07-31T15:36:31;1.8999999999999997;;;1.6;;
15557;SDS011;7880;50.110;9.372;2022-07-31T15:41:33;2.8;;;1.8999999999999997;;
15557;SDS011;7880;50.110;9.372;2022-07-31T15:46:36;2.1923076923076925;;;1.7461538461538464;;
15557;SDS011;7880;50.110;9.372;2022-07-31T15:51:39;2.8692307692307684;;;1.6999999999999995;;
15557;SDS011;7880;50.110;9.372;2022-07-31T15:56:45;1.8615384615384618;;;1.7307692307692308;;
15557;SDS011;7880;50.110;9.372;2022-07-31T16:01:46;2.392307692307693;;;1.7615384615384608;;
15557;SDS011;7880;50.110;9.372;2022-07-31T16:06:52;3.399999999999999;;;1.8000000000000005;;
15557;SDS011;7880;50.110;9.372;2022-07-31T16:11:54;1.9307692307692308;;;1.8000000000000005;;
15557;SDS011;7880;50.110;9.372;2022-07-31T16:16:58;2.0692307692307694;;;1.6;;
15557;SDS011;7880;50.110;9.372;2022-07-31T16:22:03;4.200000000000001;;;2.1000000000000005;;
15557;SDS011;7880;50.110;9.372;2022-07-31T16:27:06;2.369230769230769;;;2.0692307692307694;;
15557;SDS011;7880;50.110;9.372;2022-07-31T16:32:11;5.16923076923077;;;3.5;;
15557;SDS011;7880;50.110;9.372;2022-07-31T16:37:15;2.669230769230769;;;1.8999999999999997;;
15557;SDS011;7880;50.110;9.372;2022-07-31T16:42:20;1.9307692307692308;;;1.7307692307692308;;
15557;SDS011;7880;50.110;9.372;2022-07-31T16:47:23;4.2384615384615385;;;2.0;;
15557;SDS011;7880;50.110;9.372;2022-07-31T16:52:26;3.238461538461539;;;2.0;;
15557;SDS011;7880;50.110;9.372;2022-07-31T16:57:40;2.0;;;1.6999999999999995;;
15557;SDS011;7880;50.110;9.372;2022-07-31T17:02:36;2.669230769230769;;;1.6;;
15557;SDS011;7880;50.110;9.372;2022-07-31T17:07:42;2.7;;;2.1999999999999997;;
15557;SDS011;7880;50.110;9.372;2022-07-31T17:12:46;2.1999999999999997;;;2.0;;
15557;SDS011;7880;50.110;9.372;2022-07-31T17:18:02;2.430769230769231;;;2.0692307692307694;;
15557;SDS011;7880;50.110;9.372;2022-07-31T17:22:58;2.530769230769231;;;2.230769230769231;;
15557;SDS011;7880;50.110;9.372;2022-07-31T17:27:59;1.6;;;1.5;;
15557;SDS011;7880;50.110;9.372;2022-07-31T17:33:02;2.969230769230769;;;1.8692307692307695;;
15557;SDS011;7880;50.110;9.372;2022-07-31T17:38:05;3.6384615384615384;;;1.7692307692307692;;
15557;SDS011;7880;50.110;9.372;2022-07-31T17:43:09;2.4615384615384617;;;1.6999999999999995;;
15557;SDS011;7880;50.110;9.372;2022-07-31T17:48:12;4.2384615384615385;;;1.6999999999999995;;
15557;SDS011;7880;50.110;9.372;2022-07-31T17:53:17;4.438461538461538;;;2.0;;
15557;SDS011;7880;50.110;9.372;2022-07-31T17:58:35;5.63846153846154;;;2.1999999999999997;;
15557;SDS011;7880;50.110;9.372;2022-07-31T18:03:25;1.8000000000000005;;;1.6999999999999995;;
15557;SDS011;7880;50.110;9.372;2022-07-31T18:08:35;3.130769230769232;;;1.8307692307692305;;
15557;SDS011;7880;50.110;9.372;2022-07-31T18:13:36;2.2846153846153845;;;1.8000000000000005;;
15557;SDS011;7880;50.110;9.372;2022-07-31T18:18:39;2.030769230769231;;;1.8307692307692305;;
15557;SDS011;7880;50.110;9.372;2022-07-31T18:23:42;2.369230769230769;;;2.169230769230769;;
15557;SDS011;7880;50.110;9.372;2022-07-31T18:28:48;4.0307692307692315;;;2.3000000000000003;;
15557;SDS011;7880;50.110;9.372;2022-07-31T18:33:50;1.9307692307692308;;;1.8307692307692305;;
15557;SDS011;7880;50.110;9.372;2022-07-31T18:39:14;4.853846153846154;;;2.5538461538461537;;
15557;SDS011;7880;50.110;9.372;2022-07-31T18:44:13;4.8999999999999995;;;2.0;;
15557;SDS011;7880;50.110;9.372;2022-07-31T18:49:22;2.0;;;1.8000000000000005;;
15557;SDS011;7880;50.110;9.372;2022-07-31T18:54:21;3.56923076923077;;;1.9307692307692308;;
15557;SDS011;7880;50.110;9.372;2022-07-31T18:59:23;2.369230769230769;;;1.8999999999999997;;
15557;SDS011;7880;50.110;9.372;2022-07-31T19:04:29;3.06923076923077;;;2.169230769230769;;
15557;SDS011;7880;50.110;9.372;2022-07-31T19:09:33;3.438461538461538;;;1.8000000000000005;;
15557;SDS011;7880;50.110;9.372;2022-07-31T19:14:39;2.7692307692307705;;;2.0;;
15557;SDS011;7880;50.110;9.372;2022-07-31T19:19:41;3.315384615384616;;;1.9307692307692308;;
15557;SDS011;7880;50.110;9.372;2022-07-31T19:24:48;3.969230769230769;;;2.0;;
15557;SDS011;7880;50.110;9.372;2022-07-31T19:29:48;2.1999999999999997;;;1.6999999999999995;;
15557;SDS011;7880;50.110;9.372;2022-07-31T19:34:52;2.1000000000000005;;;1.8999999999999997;;
15557;SDS011;7880;50.110;9.372;2022-07-31T19:39:55;1.8307692307692305;;;1.7307692307692308;;
15557;SDS011;7880;50.110;9.372;2022-07-31T19:45:05;2.5;;;2.030769230769231;;
15557;SDS011;7880;50.110;9.372;2022-07-31T19:50:10;3.738461538461539;;;2.1000000000000005;;
15557;SDS011;7880;50.110;9.372;2022-07-31T19:55:21;4.538461538461538;;;2.3000000000000003;;
15557;SDS011;7880;50.110;9.372;2022-07-31T20:00:17;2.169230769230769;;;1.969230769230769;;
15557;SDS011;7880;50.110;9.372;2022-07-31T20:05:19;2.6000000000000005;;;2.1999999999999997;;
15557;SDS011;7880;50.110;9.372;2022-07-31T20:10:27;1.8000000000000005;;;1.6;;
15557;SDS011;7880;50.110;9.372;2022-07-31T20:15:28;3.969230769230769;;;2.5;;
15557;SDS011;7880;50.110;9.372;2022-07-31T20:20:32;2.169230769230769;;;1.8000000000000005;;
15557;SDS011;7880;50.110;9.372;2022-07-31T20:25:38;2.430769230769231;;;1.9307692307692308;;
15557;SDS011;7880;50.110;9.372;2022-07-31T20:31:03;4.038461538461538;;;2.1999999999999997;;
15557;SDS011;7880;50.110;9.372;2022-07-31T20:35:45;2.230769230769231;;;1.8000000000000005;;
15557;SDS011;7880;50.110;9.372;2022-07-31T20:40:49;2.8307692307692305;;;2.5;;
15557;SDS011;7880;50.110;9.372;2022-07-31T20:45:52;2.4461538461538455;;;2.1000000000000005;;
15557;SDS011;7880;50.110;9.372;2022-07-31T20:50:56;2.3999999999999995;;;2.1999999999999997;;
15557;SDS011;7880;50.110;9.372;2022-07-31T20:56:00;5.284615384615386;;;2.1999999999999997;;
15557;SDS011;7880;50.110;9.372;2022-07-31T21:01:07;2.130769230769231;;;1.8999999999999997;;
15557;SDS011;7880;50.110;9.372;2022-07-31T21:06:10;2.969230769230769;;;2.5;;
15557;SDS011;7880;50.110;9.372;2022-07-31T21:11:13;2.3999999999999995;;;2.1999999999999997;;
15557;SDS011;7880;50.110;9.372;2022-07-31T21:16:17;5.269230769230769;;;2.8;;
15557;SDS011;7880;50.110;9.372;2022-07-31T21:21:33;2.8;;;2.3999999999999995;;
15557;SDS011;7880;50.110;9.372;2022-07-31T21:26:28;3.707692307692307;;;2.3999999999999995;;
15557;SDS011;7880;50.110;9.372;2022-07-31T21:31:38;2.899999999999999;;;2.530769230769231;;
15557;SDS011;7880;50.110;9.372;2022-07-31T21:36:34;3.323076923076923;;;2.1999999999999997;;
15557;SDS011;7880;50.110;9.372;2022-07-31T21:41:38;2.630769230769231;;;2.430769230769231;;
15557;SDS011;7880;50.110;9.372;2022-07-31T21:46:43;5.338461538461538;;;2.430769230769231;;
15557;SDS011;7880;50.110;9.372;2022-07-31T21:51:46;3.7692307692307705;;;2.1307692307692307;;
15557;SDS011;7880;50.110;9.372;2022-07-31T21:56:51;5.038461538461539;;;2.469230769230769;;
15557;SDS011;7880;50.110;9.372;2022-07-31T22:01:54;2.630769230769231;;;2.1000000000000005;;
15557;SDS011;7880;50.110;9.372;2022-07-31T22:07:39;5.0076923076923086;;;2.169230769230769;;
15557;SDS011;7880;50.110;9.372;2022-07-31T22:12:20;3.630769230769232;;;2.3000000000000003;;
15557;SDS011;7880;50.110;9.372;2022-07-31T22:17:25;2.6000000000000005;;;2.3999999999999995;;
15557;SDS011;7880;50.110;9.372;2022-07-31T22:22:29;5.407692307692309;;;2.469230769230769;;
15557;SDS011;7880;50.110;9.372;2022-07-31T22:27:52;2.93076923076923;;;2.630769230769231;;
15557;SDS011;7880;50.110;9.372;2022-07-31T22:32:38;3.6384615384615384;;;2.3000000000000003;;
15557;SDS011;7880;50.110;9.372;2022-07-31T22:37:42;2.7307692307692295;;;2.1999999999999997;;
15557;SDS011;7880;50.110;9.372;2022-07-31T22:42:46;2.430769230769231;;;2.230769230769231;;
15557;SDS011;7880;50.110;9.372;2022-07-31T22:47:50;2.530769230769231;;;2.330769230769231;;
15557;SDS011;7880;50.110;9.372;2022-07-31T22:52:54;3.469230769230769;;;2.3000000000000003;;
15557;SDS011;7880;50.110;9.372;2022-07-31T22:57:57;3.169230769230769;;;2.230769230769231;;
15557;SDS011;7880;50.110;9.372;2022-07-31T23:03:01;3.169230769230769;;;2.1999999999999997;;